sensor_id;sensor_type;location;lat;lon;timestamp;P1;durP1;ratioP1;P2;durP2;ratioP2
68072;SDS011;54862;51.502;7.446;2022-07-23T00:00:56;16.00;;;6.75;;
68072;SDS011;54862;51.502;7.446;2022-07-23T00:03:22;15.80;;;7.68;;
68072;SDS011;54862;51.502;7.446;2022-07-23T00:05:48;13.55;;;6.93;;
68072;SDS011;54862;51.502;7.446;2022-07-23T00:08:14;14.32;;;7.53;;
68072;SDS011;54862;51.502;7.446;2022-07-23T00:10:40;19.20;;;8.10;;
68072;SDS011;54862;51.502;7.446;2022-07-23T00:13:06;14.85;;;7.85;;
68072;SDS011;54862;51.502;7.446;2022-07-23T00:15:32;16.67;;;8.32;;
68072;SDS011;54862;51.502;7.446;2022-07-23T00:17:58;16.85;;;9.35;;
68072;SDS011;54862;51.502;7.446;2022-07-23T00:20:24;16.75;;;8.18;;
68072;SDS011;54862;51.502;7.446;2022-07-23T00:22:52;16.38;;;8.38;;
68072;SDS011;54862;51.502;7.446;2022-07-23T00:25:19;15.02;;;7.60;;
68072;SDS011;54862;51.502;7.446;2022-07-23T00:27:45;14.73;;;8.95;;
68072;SDS011;54862;51.502;7.446;2022-07-23T00:30:11;15.02;;;7.97;;
68072;SDS011;54862;51.502;7.446;2022-07-23T00:32:47;16.00;;;8.75;;
68072;SDS011;54862;51.502;7.446;2022-07-23T00:35:13;15.38;;;8.45;;
68072;SDS011;54862;51.502;7.446;2022-07-23T00:37:39;15.65;;;8.65;;
68072;SDS011;54862;51.502;7.446;2022-07-23T00:40:06;19.00;;;8.90;;
68072;SDS011;54862;51.502;7.446;2022-07-23T00:42:32;16.05;;;8.38;;
68072;SDS011;54862;51.502;7.446;2022-07-23T00:44:58;14.63;;;8.45;;
68072;SDS011;54862;51.502;7.446;2022-07-23T00:47:24;15.48;;;8.63;;
68072;SDS011;54862;51.502;7.446;2022-07-23T00:49:51;16.10;;;9.15;;
68072;SDS011;54862;51.502;7.446;2022-07-23T00:52:17;17.85;;;8.68;;
68072;SDS011;54862;51.502;7.446;2022-07-23T00:54:43;16.23;;;9.30;;
68072;SDS011;54862;51.502;7.446;2022-07-23T00:57:08;16.88;;;9.20;;
68072;SDS011;54862;51.502;7.446;2022-07-23T00:59:34;17.85;;;9.68;;
68072;SDS011;54862;51.502;7.446;2022-07-23T01:02:00;19.60;;;9.45;;
68072;SDS011;54862;51.502;7.446;2022-07-23T01:04:26;18.30;;;9.35;;
68072;SDS011;54862;51.502;7.446;2022-07-23T01:06:52;18.27;;;9.98;;
68072;SDS011;54862;51.502;7.446;2022-07-23T01:09:18;20.08;;;10.18;;
68072;SDS011;54862;51.502;7.446;2022-07-23T01:11:44;19.25;;;9.63;;
68072;SDS011;54862;51.502;7.446;2022-07-23T01:14:11;16.33;;;9.25;;
68072;SDS011;54862;51.502;7.446;2022-07-23T01:16:38;17.88;;;9.15;;
68072;SDS011;54862;51.502;7.446;2022-07-23T01:19:04;18.08;;;10.32;;
68072;SDS011;54862;51.502;7.446;2022-07-23T01:21:31;19.50;;;10.05;;
68072;SDS011;54862;51.502;7.446;2022-07-23T01:23:58;17.27;;;9.90;;
68072;SDS011;54862;51.502;7.446;2022-07-23T01:26:24;18.48;;;10.35;;
68072;SDS011;54862;51.502;7.446;2022-07-23T01:28:50;20.77;;;10.93;;
68072;SDS011;54862;51.502;7.446;2022-07-23T01:31:16;20.52;;;10.55;;
68072;SDS011;54862;51.502;7.446;2022-07-23T01:33:42;20.15;;;10.43;;
68072;SDS011;54862;51.502;7.446;2022-07-23T01:36:09;21.35;;;10.63;;
68072;SDS011;54862;51.502;7.446;2022-07-23T01:38:35;22.63;;;11.27;;
68072;SDS011;54862;51.502;7.446;2022-07-23T01:41:01;23.13;;;10.77;;
68072;SDS011;54862;51.502;7.446;2022-07-23T01:43:27;22.00;;;10.30;;
68072;SDS011;54862;51.502;7.446;2022-07-23T01:45:53;23.33;;;11.70;;
68072;SDS011;54862;51.502;7.446;2022-07-23T01:48:19;21.05;;;9.90;;
68072;SDS011;54862;51.502;7.446;2022-07-23T01:50:46;22.17;;;10.60;;
68072;SDS011;54862;51.502;7.446;2022-07-23T01:53:12;18.10;;;10.25;;
68072;SDS011;54862;51.502;7.446;2022-07-23T01:55:38;22.40;;;10.60;;
68072;SDS011;54862;51.502;7.446;2022-07-23T01:58:04;17.45;;;10.27;;
68072;SDS011;54862;51.502;7.446;2022-07-23T02:00:30;20.40;;;10.48;;
68072;SDS011;54862;51.502;7.446;2022-07-23T02:02:56;19.15;;;10.48;;
68072;SDS011;54862;51.502;7.446;2022-07-23T02:05:25;19.67;;;10.40;;
68072;SDS011;54862;51.502;7.446;2022-07-23T02:07:53;21.55;;;10.70;;
68072;SDS011;54862;51.502;7.446;2022-07-23T02:10:19;19.35;;;10.35;;
68072;SDS011;54862;51.502;7.446;2022-07-23T02:12:46;21.75;;;11.32;;
68072;SDS011;54862;51.502;7.446;2022-07-23T02:15:12;23.10;;;10.98;;
68072;SDS011;54862;51.502;7.446;2022-07-23T02:17:38;19.35;;;10.88;;
68072;SDS011;54862;51.502;7.446;2022-07-23T02:20:04;22.42;;;11.80;;
68072;SDS011;54862;51.502;7.446;2022-07-23T02:22:31;20.88;;;10.70;;
68072;SDS011;54862;51.502;7.446;2022-07-23T02:24:57;20.17;;;10.85;;
68072;SDS011;54862;51.502;7.446;2022-07-23T02:27:23;19.08;;;10.93;;
68072;SDS011;54862;51.502;7.446;2022-07-23T02:29:49;22.45;;;11.40;;
68072;SDS011;54862;51.502;7.446;2022-07-23T02:32:15;21.70;;;10.63;;
68072;SDS011;54862;51.502;7.446;2022-07-23T02:34:41;19.25;;;10.63;;
68072;SDS011;54862;51.502;7.446;2022-07-23T02:37:07;19.65;;;10.50;;
68072;SDS011;54862;51.502;7.446;2022-07-23T02:39:34;19.50;;;10.48;;
68072;SDS011;54862;51.502;7.446;2022-07-23T02:42:00;23.55;;;11.10;;
68072;SDS011;54862;51.502;7.446;2022-07-23T02:44:26;19.13;;;11.43;;
68072;SDS011;54862;51.502;7.446;2022-07-23T02:46:52;21.67;;;11.05;;
68072;SDS011;54862;51.502;7.446;2022-07-23T02:49:18;21.25;;;11.48;;
68072;SDS011;54862;51.502;7.446;2022-07-23T02:51:44;21.67;;;10.88;;
68072;SDS011;54862;51.502;7.446;2022-07-23T02:54:10;20.35;;;11.27;;
68072;SDS011;54862;51.502;7.446;2022-07-23T02:56:36;19.85;;;10.88;;
68072;SDS011;54862;51.502;7.446;2022-07-23T02:59:02;22.45;;;11.20;;
68072;SDS011;54862;51.502;7.446;2022-07-23T03:01:28;22.48;;;10.45;;
68072;SDS011;54862;51.502;7.446;2022-07-23T03:03:54;21.25;;;11.05;;
68072;SDS011;54862;51.502;7.446;2022-07-23T03:06:20;23.65;;;11.65;;
68072;SDS011;54862;51.502;7.446;2022-07-23T03:08:45;20.70;;;11.00;;
68072;SDS011;54862;51.502;7.446;2022-07-23T03:11:11;23.23;;;11.85;;
68072;SDS011;54862;51.502;7.446;2022-07-23T03:13:38;21.92;;;10.95;;
68072;SDS011;54862;51.502;7.446;2022-07-23T03:16:04;21.08;;;10.68;;
68072;SDS011;54862;51.502;7.446;2022-07-23T03:18:30;21.05;;;10.65;;
68072;SDS011;54862;51.502;7.446;2022-07-23T03:20:56;22.15;;;10.52;;
68072;SDS011;54862;51.502;7.446;2022-07-23T03:23:22;21.73;;;10.52;;
68072;SDS011;54862;51.502;7.446;2022-07-23T03:25:48;20.38;;;9.88;;
68072;SDS011;54862;51.502;7.446;2022-07-23T03:28:15;20.25;;;11.00;;
68072;SDS011;54862;51.502;7.446;2022-07-23T03:30:44;20.05;;;10.25;;
68072;SDS011;54862;51.502;7.446;2022-07-23T03:33:14;20.00;;;10.85;;
68072;SDS011;54862;51.502;7.446;2022-07-23T03:35:41;20.63;;;10.48;;
68072;SDS011;54862;51.502;7.446;2022-07-23T03:38:07;20.33;;;11.00;;
68072;SDS011;54862;51.502;7.446;2022-07-23T03:40:33;19.83;;;10.93;;
68072;SDS011;54862;51.502;7.446;2022-07-23T03:42:59;17.55;;;10.52;;
68072;SDS011;54862;51.502;7.446;2022-07-23T03:45:25;18.92;;;10.60;;
68072;SDS011;54862;51.502;7.446;2022-07-23T03:47:51;18.83;;;10.73;;
68072;SDS011;54862;51.502;7.446;2022-07-23T03:50:17;20.08;;;10.18;;
68072;SDS011;54862;51.502;7.446;2022-07-23T03:52:43;19.45;;;10.52;;
68072;SDS011;54862;51.502;7.446;2022-07-23T03:55:09;21.90;;;10.98;;
68072;SDS011;54862;51.502;7.446;2022-07-23T03:57:35;19.52;;;10.25;;
68072;SDS011;54862;51.502;7.446;2022-07-23T04:00:02;20.00;;;10.18;;
68072;SDS011;54862;51.502;7.446;2022-07-23T04:02:29;20.55;;;11.40;;
68072;SDS011;54862;51.502;7.446;2022-07-23T04:04:55;21.98;;;11.70;;
68072;SDS011;54862;51.502;7.446;2022-07-23T04:07:21;21.27;;;10.70;;
68072;SDS011;54862;51.502;7.446;2022-07-23T04:09:47;19.05;;;10.52;;
68072;SDS011;54862;51.502;7.446;2022-07-23T04:12:13;20.70;;;11.15;;
68072;SDS011;54862;51.502;7.446;2022-07-23T04:14:39;19.92;;;11.20;;
68072;SDS011;54862;51.502;7.446;2022-07-23T04:17:05;21.15;;;10.93;;
68072;SDS011;54862;51.502;7.446;2022-07-23T04:19:31;21.85;;;10.75;;
68072;SDS011;54862;51.502;7.446;2022-07-23T04:21:57;20.17;;;10.50;;
68072;SDS011;54862;51.502;7.446;2022-07-23T04:24:23;22.52;;;11.00;;
68072;SDS011;54862;51.502;7.446;2022-07-23T04:26:49;18.85;;;11.93;;
68072;SDS011;54862;51.502;7.446;2022-07-23T04:29:15;21.25;;;11.70;;
68072;SDS011;54862;51.502;7.446;2022-07-23T04:31:41;23.48;;;11.90;;
68072;SDS011;54862;51.502;7.446;2022-07-23T04:34:07;24.70;;;11.82;;
68072;SDS011;54862;51.502;7.446;2022-07-23T04:36:33;23.95;;;12.23;;
68072;SDS011;54862;51.502;7.446;2022-07-23T04:38:59;21.70;;;12.35;;
68072;SDS011;54862;51.502;7.446;2022-07-23T04:41:25;21.35;;;11.60;;
68072;SDS011;54862;51.502;7.446;2022-07-23T04:43:51;19.17;;;11.48;;
68072;SDS011;54862;51.502;7.446;2022-07-23T04:46:17;24.10;;;12.32;;
68072;SDS011;54862;51.502;7.446;2022-07-23T04:48:43;21.17;;;11.55;;
68072;SDS011;54862;51.502;7.446;2022-07-23T04:51:09;21.73;;;12.15;;
68072;SDS011;54862;51.502;7.446;2022-07-23T04:53:36;26.13;;;12.93;;
68072;SDS011;54862;51.502;7.446;2022-07-23T04:56:03;20.40;;;11.68;;
68072;SDS011;54862;51.502;7.446;2022-07-23T04:58:29;21.67;;;12.48;;
68072;SDS011;54862;51.502;7.446;2022-07-23T05:00:56;21.48;;;11.30;;
68072;SDS011;54862;51.502;7.446;2022-07-23T05:03:23;21.58;;;11.15;;
68072;SDS011;54862;51.502;7.446;2022-07-23T05:05:49;22.13;;;11.75;;
68072;SDS011;54862;51.502;7.446;2022-07-23T05:08:15;22.45;;;11.80;;
68072;SDS011;54862;51.502;7.446;2022-07-23T05:10:41;21.20;;;11.85;;
68072;SDS011;54862;51.502;7.446;2022-07-23T05:13:07;20.27;;;11.70;;
68072;SDS011;54862;51.502;7.446;2022-07-23T05:15:33;27.65;;;14.70;;
68072;SDS011;54862;51.502;7.446;2022-07-23T05:17:59;25.20;;;13.88;;
68072;SDS011;54862;51.502;7.446;2022-07-23T05:20:25;26.58;;;13.07;;
68072;SDS011;54862;51.502;7.446;2022-07-23T05:22:51;23.52;;;12.45;;
68072;SDS011;54862;51.502;7.446;2022-07-23T05:25:17;22.67;;;13.00;;
68072;SDS011;54862;51.502;7.446;2022-07-23T05:27:43;26.95;;;14.95;;
68072;SDS011;54862;51.502;7.446;2022-07-23T05:30:09;29.80;;;15.70;;
68072;SDS011;54862;51.502;7.446;2022-07-23T05:32:35;25.15;;;14.98;;
68072;SDS011;54862;51.502;7.446;2022-07-23T05:35:02;27.92;;;16.05;;
68072;SDS011;54862;51.502;7.446;2022-07-23T05:37:28;27.52;;;15.55;;
68072;SDS011;54862;51.502;7.446;2022-07-23T05:39:54;28.30;;;14.77;;
68072;SDS011;54862;51.502;7.446;2022-07-23T05:42:20;29.75;;;15.80;;
68072;SDS011;54862;51.502;7.446;2022-07-23T05:44:46;27.90;;;15.95;;
68072;SDS011;54862;51.502;7.446;2022-07-23T05:47:12;27.98;;;15.93;;
68072;SDS011;54862;51.502;7.446;2022-07-23T05:49:38;28.55;;;15.10;;
68072;SDS011;54862;51.502;7.446;2022-07-23T05:52:05;26.27;;;16.20;;
68072;SDS011;54862;51.502;7.446;2022-07-23T05:54:33;27.80;;;16.23;;
68072;SDS011;54862;51.502;7.446;2022-07-23T05:57:00;26.27;;;15.77;;
68072;SDS011;54862;51.502;7.446;2022-07-23T05:59:26;26.77;;;16.90;;
68072;SDS011;54862;51.502;7.446;2022-07-23T06:01:52;36.95;;;18.63;;
68072;SDS011;54862;51.502;7.446;2022-07-23T06:04:18;33.42;;;18.60;;
68072;SDS011;54862;51.502;7.446;2022-07-23T06:06:43;33.80;;;19.08;;
68072;SDS011;54862;51.502;7.446;2022-07-23T06:09:10;38.15;;;19.85;;
68072;SDS011;54862;51.502;7.446;2022-07-23T06:11:38;36.42;;;19.67;;
68072;SDS011;54862;51.502;7.446;2022-07-23T06:14:04;41.10;;;20.33;;
68072;SDS011;54862;51.502;7.446;2022-07-23T06:16:30;40.03;;;20.98;;
68072;SDS011;54862;51.502;7.446;2022-07-23T06:18:56;50.22;;;22.52;;
68072;SDS011;54862;51.502;7.446;2022-07-23T06:21:22;53.10;;;24.17;;
68072;SDS011;54862;51.502;7.446;2022-07-23T06:23:48;52.22;;;24.30;;
68072;SDS011;54862;51.502;7.446;2022-07-23T06:26:14;57.10;;;25.55;;
68072;SDS011;54862;51.502;7.446;2022-07-23T06:28:40;50.67;;;24.45;;
68072;SDS011;54862;51.502;7.446;2022-07-23T06:31:06;55.67;;;25.40;;
68072;SDS011;54862;51.502;7.446;2022-07-23T06:33:33;55.72;;;25.45;;
68072;SDS011;54862;51.502;7.446;2022-07-23T06:35:59;52.15;;;26.00;;
68072;SDS011;54862;51.502;7.446;2022-07-23T06:38:25;52.28;;;24.80;;
68072;SDS011;54862;51.502;7.446;2022-07-23T06:40:52;56.28;;;25.42;;
68072;SDS011;54862;51.502;7.446;2022-07-23T06:43:18;63.97;;;27.90;;
68072;SDS011;54862;51.502;7.446;2022-07-23T06:45:44;59.58;;;27.17;;
68072;SDS011;54862;51.502;7.446;2022-07-23T06:48:10;61.70;;;28.40;;
68072;SDS011;54862;51.502;7.446;2022-07-23T06:50:35;60.13;;;25.75;;
68072;SDS011;54862;51.502;7.446;2022-07-23T06:53:01;54.30;;;25.73;;
68072;SDS011;54862;51.502;7.446;2022-07-23T06:55:27;53.97;;;26.45;;
68072;SDS011;54862;51.502;7.446;2022-07-23T06:57:53;57.10;;;26.83;;
68072;SDS011;54862;51.502;7.446;2022-07-23T07:00:19;57.03;;;27.70;;
68072;SDS011;54862;51.502;7.446;2022-07-23T07:02:45;51.97;;;26.10;;
68072;SDS011;54862;51.502;7.446;2022-07-23T07:05:11;57.22;;;26.55;;
68072;SDS011;54862;51.502;7.446;2022-07-23T07:07:37;60.40;;;28.95;;
68072;SDS011;54862;51.502;7.446;2022-07-23T07:10:03;61.05;;;29.08;;
68072;SDS011;54862;51.502;7.446;2022-07-23T07:12:30;60.50;;;27.75;;
68072;SDS011;54862;51.502;7.446;2022-07-23T07:14:56;66.70;;;29.58;;
68072;SDS011;54862;51.502;7.446;2022-07-23T07:17:22;69.53;;;29.35;;
68072;SDS011;54862;51.502;7.446;2022-07-23T07:19:48;55.17;;;27.85;;
68072;SDS011;54862;51.502;7.446;2022-07-23T07:22:14;48.22;;;25.52;;
68072;SDS011;54862;51.502;7.446;2022-07-23T07:24:40;44.25;;;23.75;;
68072;SDS011;54862;51.502;7.446;2022-07-23T07:27:06;52.00;;;26.15;;
68072;SDS011;54862;51.502;7.446;2022-07-23T07:29:32;46.60;;;24.88;;
68072;SDS011;54862;51.502;7.446;2022-07-23T07:31:58;49.47;;;24.60;;
68072;SDS011;54862;51.502;7.446;2022-07-23T07:34:24;50.22;;;26.08;;
68072;SDS011;54862;51.502;7.446;2022-07-23T07:36:50;45.17;;;24.67;;
68072;SDS011;54862;51.502;7.446;2022-07-23T07:39:16;46.80;;;25.77;;
68072;SDS011;54862;51.502;7.446;2022-07-23T07:41:42;42.75;;;25.05;;
68072;SDS011;54862;51.502;7.446;2022-07-23T07:44:08;44.83;;;25.02;;
68072;SDS011;54862;51.502;7.446;2022-07-23T07:46:34;42.58;;;23.80;;
68072;SDS011;54862;51.502;7.446;2022-07-23T07:49:00;44.17;;;25.95;;
68072;SDS011;54862;51.502;7.446;2022-07-23T07:51:26;46.00;;;25.45;;
68072;SDS011;54862;51.502;7.446;2022-07-23T07:53:53;39.00;;;22.83;;
68072;SDS011;54862;51.502;7.446;2022-07-23T07:56:19;41.92;;;23.35;;
68072;SDS011;54862;51.502;7.446;2022-07-23T07:58:45;42.78;;;23.10;;
68072;SDS011;54862;51.502;7.446;2022-07-23T08:01:11;41.97;;;22.73;;
68072;SDS011;54862;51.502;7.446;2022-07-23T08:03:37;39.47;;;23.35;;
68072;SDS011;54862;51.502;7.446;2022-07-23T08:06:04;39.22;;;23.75;;
68072;SDS011;54862;51.502;7.446;2022-07-23T08:08:30;43.03;;;25.13;;
68072;SDS011;54862;51.502;7.446;2022-07-23T08:10:56;39.20;;;22.58;;
68072;SDS011;54862;51.502;7.446;2022-07-23T08:13:22;36.65;;;22.05;;
68072;SDS011;54862;51.502;7.446;2022-07-23T08:15:48;42.05;;;22.27;;
68072;SDS011;54862;51.502;7.446;2022-07-23T08:18:14;30.00;;;17.50;;
68072;SDS011;54862;51.502;7.446;2022-07-23T08:20:40;26.23;;;16.50;;
68072;SDS011;54862;51.502;7.446;2022-07-23T08:23:07;24.83;;;15.07;;
68072;SDS011;54862;51.502;7.446;2022-07-23T08:25:34;21.38;;;13.80;;
68072;SDS011;54862;51.502;7.446;2022-07-23T08:28:01;21.05;;;13.23;;
68072;SDS011;54862;51.502;7.446;2022-07-23T08:30:27;21.63;;;13.88;;
68072;SDS011;54862;51.502;7.446;2022-07-23T08:33:03;18.65;;;12.57;;
68072;SDS011;54862;51.502;7.446;2022-07-23T08:35:31;20.48;;;13.55;;
68072;SDS011;54862;51.502;7.446;2022-07-23T08:37:58;21.30;;;13.35;;
68072;SDS011;54862;51.502;7.446;2022-07-23T08:40:29;20.50;;;12.43;;
68072;SDS011;54862;51.502;7.446;2022-07-23T08:42:55;19.08;;;12.45;;
68072;SDS011;54862;51.502;7.446;2022-07-23T08:45:22;15.15;;;10.23;;
68072;SDS011;54862;51.502;7.446;2022-07-23T08:47:49;15.35;;;8.65;;
68072;SDS011;54862;51.502;7.446;2022-07-23T08:50:15;13.48;;;8.30;;
68072;SDS011;54862;51.502;7.446;2022-07-23T08:52:41;15.38;;;9.38;;
68072;SDS011;54862;51.502;7.446;2022-07-23T08:55:13;17.92;;;10.70;;
68072;SDS011;54862;51.502;7.446;2022-07-23T08:57:39;14.52;;;7.97;;
68072;SDS011;54862;51.502;7.446;2022-07-23T09:00:05;13.13;;;8.40;;
68072;SDS011;54862;51.502;7.446;2022-07-23T09:02:38;18.02;;;7.93;;
68072;SDS011;54862;51.502;7.446;2022-07-23T09:05:04;14.48;;;8.07;;
68072;SDS011;54862;51.502;7.446;2022-07-23T09:07:31;14.00;;;7.68;;
68072;SDS011;54862;51.502;7.446;2022-07-23T09:10:07;11.70;;;7.10;;
68072;SDS011;54862;51.502;7.446;2022-07-23T09:12:34;12.52;;;6.72;;
68072;SDS011;54862;51.502;7.446;2022-07-23T09:15:04;11.02;;;6.32;;
68072;SDS011;54862;51.502;7.446;2022-07-23T09:17:36;9.35;;;5.93;;
68072;SDS011;54862;51.502;7.446;2022-07-23T09:20:09;10.80;;;5.95;;
68072;SDS011;54862;51.502;7.446;2022-07-23T09:22:35;14.25;;;6.43;;
68072;SDS011;54862;51.502;7.446;2022-07-23T09:27:46;11.82;;;5.85;;
68072;SDS011;54862;51.502;7.446;2022-07-23T09:30:12;10.32;;;6.15;;
68072;SDS011;54862;51.502;7.446;2022-07-23T09:32:39;12.40;;;6.43;;
68072;SDS011;54862;51.502;7.446;2022-07-23T09:35:05;12.05;;;6.78;;
68072;SDS011;54862;51.502;7.446;2022-07-23T09:37:31;12.18;;;5.47;;
68072;SDS011;54862;51.502;7.446;2022-07-23T09:40:05;11.05;;;6.10;;
68072;SDS011;54862;51.502;7.446;2022-07-23T09:42:31;10.57;;;5.82;;
68072;SDS011;54862;51.502;7.446;2022-07-23T09:44:58;10.95;;;5.35;;
68072;SDS011;54862;51.502;7.446;2022-07-23T09:47:26;9.68;;;5.03;;
68072;SDS011;54862;51.502;7.446;2022-07-23T09:52:29;9.05;;;4.90;;
68072;SDS011;54862;51.502;7.446;2022-07-23T09:54:59;10.63;;;4.90;;
68072;SDS011;54862;51.502;7.446;2022-07-23T09:57:26;10.70;;;5.30;;
68072;SDS011;54862;51.502;7.446;2022-07-23T09:59:52;10.68;;;5.22;;
68072;SDS011;54862;51.502;7.446;2022-07-23T10:02:18;9.77;;;5.10;;
68072;SDS011;54862;51.502;7.446;2022-07-23T10:04:45;10.05;;;4.80;;
68072;SDS011;54862;51.502;7.446;2022-07-23T10:07:37;9.75;;;5.20;;
68072;SDS011;54862;51.502;7.446;2022-07-23T10:10:05;9.32;;;4.45;;
68072;SDS011;54862;51.502;7.446;2022-07-23T10:12:31;8.25;;;4.68;;
68072;SDS011;54862;51.502;7.446;2022-07-23T10:15:07;9.15;;;4.95;;
68072;SDS011;54862;51.502;7.446;2022-07-23T10:17:33;10.77;;;5.80;;
68072;SDS011;54862;51.502;7.446;2022-07-23T10:20:00;9.23;;;5.00;;
68072;SDS011;54862;51.502;7.446;2022-07-23T10:22:30;9.82;;;5.15;;
68072;SDS011;54862;51.502;7.446;2022-07-23T10:32:53;9.32;;;5.40;;
68072;SDS011;54862;51.502;7.446;2022-07-23T10:38:13;9.40;;;4.80;;
68072;SDS011;54862;51.502;7.446;2022-07-23T10:40:54;9.07;;;5.22;;
68072;SDS011;54862;51.502;7.446;2022-07-23T10:43:21;10.13;;;5.38;;
68072;SDS011;54862;51.502;7.446;2022-07-23T10:45:47;10.65;;;6.30;;
68072;SDS011;54862;51.502;7.446;2022-07-23T10:48:20;10.68;;;6.30;;
68072;SDS011;54862;51.502;7.446;2022-07-23T10:51:05;11.68;;;5.55;;
68072;SDS011;54862;51.502;7.446;2022-07-23T10:59:18;11.38;;;6.05;;
68072;SDS011;54862;51.502;7.446;2022-07-23T11:01:44;11.07;;;7.47;;
68072;SDS011;54862;51.502;7.446;2022-07-23T11:04:11;11.15;;;6.72;;
68072;SDS011;54862;51.502;7.446;2022-07-23T11:17:23;10.45;;;6.90;;
68072;SDS011;54862;51.502;7.446;2022-07-23T11:23:06;10.10;;;6.45;;
68072;SDS011;54862;51.502;7.446;2022-07-23T11:25:29;12.05;;;7.45;;
68072;SDS011;54862;51.502;7.446;2022-07-23T11:28:09;10.20;;;7.03;;
68072;SDS011;54862;51.502;7.446;2022-07-23T11:35:34;10.25;;;5.38;;
68072;SDS011;54862;51.502;7.446;2022-07-23T11:38:19;8.95;;;5.28;;
68072;SDS011;54862;51.502;7.446;2022-07-23T11:40:46;7.90;;;4.78;;
68072;SDS011;54862;51.502;7.446;2022-07-23T11:43:12;9.48;;;4.95;;
68072;SDS011;54862;51.502;7.446;2022-07-23T11:45:49;7.68;;;5.07;;
68072;SDS011;54862;51.502;7.446;2022-07-23T11:48:26;8.32;;;4.50;;
68072;SDS011;54862;51.502;7.446;2022-07-23T11:50:52;8.65;;;5.07;;
68072;SDS011;54862;51.502;7.446;2022-07-23T11:53:28;8.95;;;4.78;;
68072;SDS011;54862;51.502;7.446;2022-07-23T11:56:08;9.13;;;4.35;;
68072;SDS011;54862;51.502;7.446;2022-07-23T11:58:35;6.55;;;4.13;;
68072;SDS011;54862;51.502;7.446;2022-07-23T12:01:01;8.05;;;4.78;;
68072;SDS011;54862;51.502;7.446;2022-07-23T12:03:27;9.25;;;5.75;;
68072;SDS011;54862;51.502;7.446;2022-07-23T12:05:59;12.18;;;5.20;;
68072;SDS011;54862;51.502;7.446;2022-07-23T12:08:26;9.07;;;4.07;;
68072;SDS011;54862;51.502;7.446;2022-07-23T12:10:52;5.88;;;3.30;;
68072;SDS011;54862;51.502;7.446;2022-07-23T12:13:18;6.07;;;3.10;;
68072;SDS011;54862;51.502;7.446;2022-07-23T12:15:49;5.55;;;3.20;;
68072;SDS011;54862;51.502;7.446;2022-07-23T12:18:16;6.65;;;3.67;;
68072;SDS011;54862;51.502;7.446;2022-07-23T12:20:43;7.40;;;3.78;;
68072;SDS011;54862;51.502;7.446;2022-07-23T12:23:10;5.70;;;3.00;;
68072;SDS011;54862;51.502;7.446;2022-07-23T12:25:38;6.05;;;2.90;;
68072;SDS011;54862;51.502;7.446;2022-07-23T12:28:06;6.47;;;3.30;;
68072;SDS011;54862;51.502;7.446;2022-07-23T12:30:42;8.25;;;3.22;;
68072;SDS011;54862;51.502;7.446;2022-07-23T12:33:09;7.13;;;3.15;;
68072;SDS011;54862;51.502;7.446;2022-07-23T12:38:08;6.45;;;3.28;;
68072;SDS011;54862;51.502;7.446;2022-07-23T12:40:44;7.45;;;3.15;;
68072;SDS011;54862;51.502;7.446;2022-07-23T12:43:11;6.85;;;3.20;;
68072;SDS011;54862;51.502;7.446;2022-07-23T12:45:45;5.13;;;2.95;;
68072;SDS011;54862;51.502;7.446;2022-07-23T12:50:47;6.07;;;2.92;;
68072;SDS011;54862;51.502;7.446;2022-07-23T12:53:18;5.80;;;2.97;;
68072;SDS011;54862;51.502;7.446;2022-07-23T12:55:44;5.40;;;2.88;;
68072;SDS011;54862;51.502;7.446;2022-07-23T12:58:15;8.10;;;3.20;;
68072;SDS011;54862;51.502;7.446;2022-07-23T13:03:20;8.60;;;3.15;;
68072;SDS011;54862;51.502;7.446;2022-07-23T13:05:46;5.38;;;2.53;;
68072;SDS011;54862;51.502;7.446;2022-07-23T13:08:12;7.00;;;2.90;;
68072;SDS011;54862;51.502;7.446;2022-07-23T13:10:38;4.95;;;2.72;;
68072;SDS011;54862;51.502;7.446;2022-07-23T13:13:08;5.45;;;2.88;;
68072;SDS011;54862;51.502;7.446;2022-07-23T13:15:34;7.20;;;2.80;;
68072;SDS011;54862;51.502;7.446;2022-07-23T13:18:00;5.25;;;2.53;;
68072;SDS011;54862;51.502;7.446;2022-07-23T13:20:26;3.80;;;2.17;;
68072;SDS011;54862;51.502;7.446;2022-07-23T13:22:52;12.48;;;2.85;;
68072;SDS011;54862;51.502;7.446;2022-07-23T13:25:18;4.43;;;2.20;;
68072;SDS011;54862;51.502;7.446;2022-07-23T13:27:44;4.22;;;2.40;;
68072;SDS011;54862;51.502;7.446;2022-07-23T13:30:10;5.00;;;2.30;;
68072;SDS011;54862;51.502;7.446;2022-07-23T13:32:36;4.60;;;2.40;;
68072;SDS011;54862;51.502;7.446;2022-07-23T13:35:03;4.35;;;2.20;;
68072;SDS011;54862;51.502;7.446;2022-07-23T13:37:29;4.65;;;2.45;;
68072;SDS011;54862;51.502;7.446;2022-07-23T13:39:55;5.53;;;2.30;;
68072;SDS011;54862;51.502;7.446;2022-07-23T13:42:21;6.72;;;2.80;;
68072;SDS011;54862;51.502;7.446;2022-07-23T13:44:47;3.67;;;2.33;;
68072;SDS011;54862;51.502;7.446;2022-07-23T13:47:13;5.55;;;2.53;;
68072;SDS011;54862;51.502;7.446;2022-07-23T13:49:39;4.70;;;2.50;;
68072;SDS011;54862;51.502;7.446;2022-07-23T13:52:05;4.55;;;2.45;;
68072;SDS011;54862;51.502;7.446;2022-07-23T13:54:31;4.32;;;2.45;;
68072;SDS011;54862;51.502;7.446;2022-07-23T13:56:57;4.30;;;2.45;;
68072;SDS011;54862;51.502;7.446;2022-07-23T13:59:23;5.20;;;2.40;;
68072;SDS011;54862;51.502;7.446;2022-07-23T14:01:49;7.50;;;2.50;;
68072;SDS011;54862;51.502;7.446;2022-07-23T14:04:15;5.00;;;2.47;;
68072;SDS011;54862;51.502;7.446;2022-07-23T14:06:41;5.07;;;2.45;;
68072;SDS011;54862;51.502;7.446;2022-07-23T14:09:07;3.63;;;2.10;;
68072;SDS011;54862;51.502;7.446;2022-07-23T14:11:33;3.60;;;2.40;;
68072;SDS011;54862;51.502;7.446;2022-07-23T14:13:59;6.03;;;2.45;;
68072;SDS011;54862;51.502;7.446;2022-07-23T14:16:26;7.05;;;2.58;;
68072;SDS011;54862;51.502;7.446;2022-07-23T14:18:52;6.93;;;2.40;;
68072;SDS011;54862;51.502;7.446;2022-07-23T14:21:18;4.78;;;2.50;;
68072;SDS011;54862;51.502;7.446;2022-07-23T14:23:44;6.13;;;2.53;;
68072;SDS011;54862;51.502;7.446;2022-07-23T14:26:10;4.53;;;2.45;;
68072;SDS011;54862;51.502;7.446;2022-07-23T14:28:36;4.13;;;2.33;;
68072;SDS011;54862;51.502;7.446;2022-07-23T14:31:02;5.00;;;2.50;;
68072;SDS011;54862;51.502;7.446;2022-07-23T14:33:28;4.93;;;2.60;;
68072;SDS011;54862;51.502;7.446;2022-07-23T14:35:54;5.90;;;2.70;;
68072;SDS011;54862;51.502;7.446;2022-07-23T14:38:20;4.75;;;2.70;;
68072;SDS011;54862;51.502;7.446;2022-07-23T14:40:46;5.38;;;2.53;;
68072;SDS011;54862;51.502;7.446;2022-07-23T14:43:12;6.25;;;2.60;;
68072;SDS011;54862;51.502;7.446;2022-07-23T14:45:38;5.95;;;2.50;;
68072;SDS011;54862;51.502;7.446;2022-07-23T14:48:04;6.15;;;2.55;;
68072;SDS011;54862;51.502;7.446;2022-07-23T14:50:30;6.20;;;2.78;;
68072;SDS011;54862;51.502;7.446;2022-07-23T14:52:56;5.57;;;2.50;;
68072;SDS011;54862;51.502;7.446;2022-07-23T14:55:22;7.00;;;2.58;;
68072;SDS011;54862;51.502;7.446;2022-07-23T14:57:48;4.80;;;2.72;;
68072;SDS011;54862;51.502;7.446;2022-07-23T15:00:14;5.65;;;2.65;;
68072;SDS011;54862;51.502;7.446;2022-07-23T15:02:40;5.68;;;2.38;;
68072;SDS011;54862;51.502;7.446;2022-07-23T15:05:06;3.85;;;2.40;;
68072;SDS011;54862;51.502;7.446;2022-07-23T15:07:32;4.78;;;2.53;;
68072;SDS011;54862;51.502;7.446;2022-07-23T15:09:58;5.22;;;2.80;;
68072;SDS011;54862;51.502;7.446;2022-07-23T15:12:24;5.20;;;2.55;;
68072;SDS011;54862;51.502;7.446;2022-07-23T15:14:50;7.55;;;2.50;;
68072;SDS011;54862;51.502;7.446;2022-07-23T15:17:16;5.78;;;2.63;;